createdAt,value
2023-02-24T00:01:59.929Z,97086.53
2023-02-24T00:04:33.223Z,97088.16
2023-02-24T00:07:00.269Z,97091.59
2023-02-24T00:09:28.893Z,97085.69
2023-02-24T00:12:04.449Z,97076.94
2023-02-24T00:14:39.913Z,97074.41
2023-02-24T00:17:10.776Z,97070.78
2023-02-24T00:19:38.077Z,97070.28
2023-02-24T00:22:07.367Z,97065.00
2023-02-24T00:24:35.629Z,97064.81
2023-02-24T00:27:07.678Z,97066.13
2023-02-24T00:29:37.559Z,97071.44
2023-02-24T00:32:07.127Z,97072.31
2023-02-24T00:34:36.635Z,97071.03
2023-02-24T00:37:06.836Z,97068.16
2023-02-24T00:39:35.614Z,97069.28
2023-02-24T00:42:05.093Z,97062.94
2023-02-24T00:44:44.751Z,97061.53
2023-02-24T00:47:12.454Z,97058.09
2023-02-24T00:49:43.278Z,97057.19
2023-02-24T00:52:13.740Z,97056.53
2023-02-24T00:54:41.525Z,97053.81
2023-02-24T00:57:08.438Z,97056.53
2023-02-24T00:59:36.554Z,97046.53
2023-02-24T01:02:03.929Z,97050.03
2023-02-24T01:04:31.065Z,97047.50
2023-02-24T01:07:00.704Z,97048.22
2023-02-24T01:09:31.823Z,97047.84
2023-02-24T01:12:22.060Z,97048.75
2023-02-24T01:14:51.168Z,97050.09
2023-02-24T01:17:19.223Z,97049.38
2023-02-24T01:19:49.074Z,97040.53
2023-02-24T01:22:17.319Z,97040.16
2023-02-24T01:24:45.239Z,97043.44
2023-02-24T01:27:13.987Z,97038.50
2023-02-24T01:29:41.896Z,97034.31
2023-02-24T01:32:20.316Z,97037.94
2023-02-24T01:34:48.047Z,97035.94
2023-02-24T01:37:19.175Z,97032.31
2023-02-24T01:39:46.380Z,97024.34
2023-02-24T01:42:21.866Z,97017.44
2023-02-24T01:45:14.194Z,97016.00
2023-02-24T01:47:41.770Z,97015.16
2023-02-24T01:50:10.332Z,97010.03
2023-02-24T01:52:37.677Z,97005.94
2023-02-24T01:55:25.379Z,97007.94
2023-02-24T01:57:54.023Z,97007.94
2023-02-24T02:00:37.473Z,97001.22
2023-02-24T02:03:10.889Z,96999.59
2023-02-24T02:05:39.773Z,96997.22
2023-02-24T02:08:09.170Z,96999.97
2023-02-24T02:10:39.258Z,96994.34
2023-02-24T02:13:06.651Z,96994.72
2023-02-24T02:15:42.690Z,96989.47
2023-02-24T02:18:24.234Z,96981.56
2023-02-24T02:21:31.414Z,96984.28
2023-02-24T02:24:36.978Z,96980.28
2023-02-24T02:27:09.386Z,96979.56
2023-02-24T02:30:32.013Z,96987.53
2023-02-24T02:33:47.992Z,96995.50
2023-02-24T02:36:34.713Z,96992.22
2023-02-24T02:39:20.277Z,96992.00
2023-02-24T02:42:02.140Z,96990.38
2023-02-24T02:44:47.601Z,96989.28
2023-02-24T02:47:23.675Z,96980.94
2023-02-24T02:50:11.878Z,96988.63
2023-02-24T02:53:00.840Z,96984.22
2023-02-24T02:55:40.858Z,96980.22
2023-02-24T02:58:14.843Z,96980.41
2023-02-24T03:00:51.381Z,96970.06
2023-02-24T03:03:19.434Z,96973.72
2023-02-24T03:05:57.378Z,96969.22
2023-02-24T03:08:29.549Z,96969.72
2023-02-24T03:11:00.939Z,96963.06
2023-02-24T03:13:31.967Z,96976.69
2023-02-24T03:16:02.262Z,96975.97
2023-02-24T03:18:35.469Z,96960.06
2023-02-24T03:21:12.807Z,96967.28
2023-02-24T03:23:50.828Z,96971.94
2023-02-24T03:26:49.836Z,96965.25
2023-02-24T03:29:23.967Z,96975.88
2023-02-24T03:32:33.368Z,96967.91
2023-02-24T03:35:11.010Z,96969.00
2023-02-24T03:37:37.687Z,96966.28
2023-02-24T03:40:14.755Z,96965.06
2023-02-24T03:42:46.200Z,96958.19
2023-02-24T03:45:16.150Z,96961.81
2023-02-24T03:47:45.553Z,96959.81
2023-02-24T03:50:17.745Z,96956.41
2023-02-24T03:53:09.154Z,96958.66
2023-02-24T03:56:16.639Z,96955.75
2023-02-24T03:59:07.015Z,96952.13
2023-02-24T04:01:49.059Z,96960.84
2023-02-24T04:04:36.802Z,96953.28
2023-02-24T04:07:32.494Z,96955.09
2023-02-24T04:10:15.443Z,96954.53
2023-02-24T04:13:07.424Z,96951.75
2023-02-24T04:15:47.360Z,96950.72
2023-02-24T04:18:24.341Z,96952.88
2023-02-24T04:20:53.285Z,96954.53
2023-02-24T04:23:26.772Z,96957.66
2023-02-24T04:25:56.282Z,96940.81
2023-02-24T04:28:24.624Z,96940.06
2023-02-24T04:30:56.175Z,96943.16
2023-02-24T04:33:23.027Z,96943.88
2023-02-24T04:35:50.796Z,96940.47
2023-02-24T04:38:18.189Z,96937.38
2023-02-24T04:40:45.576Z,96935.44
2023-02-24T04:43:13.066Z,96931.44
2023-02-24T04:45:40.379Z,96929.13
2023-02-24T04:48:12.748Z,96920.63
2023-02-24T04:50:43.063Z,96925.50
2023-02-24T04:53:12.266Z,96914.13
2023-02-24T04:55:48.997Z,96913.28
2023-02-24T04:58:22.054Z,96909.13
2023-02-24T05:00:52.822Z,96904.97
2023-02-24T05:03:21.552Z,96914.97
2023-02-24T05:06:01.954Z,96902.66
2023-02-24T05:08:30.682Z,96898.13
2023-02-24T05:10:58.614Z,96897.59
2023-02-24T05:13:28.073Z,96880.59
2023-02-24T05:15:57.013Z,96877.34
2023-02-24T05:18:24.133Z,96871.19
2023-02-24T05:21:12.532Z,96878.25
2023-02-24T05:23:44.797Z,96871.69
2023-02-24T05:26:16.129Z,96870.09
2023-02-24T05:28:44.948Z,96873.38
2023-02-24T05:31:17.644Z,96869.38
2023-02-24T05:33:48.514Z,96868.91
2023-02-24T05:36:18.683Z,96872.16
2023-02-24T05:38:56.596Z,96871.25
2023-02-24T05:41:32.415Z,96859.16
2023-02-24T05:44:02.380Z,96857.91
2023-02-24T05:46:33.942Z,96859.53
2023-02-24T05:49:16.023Z,96858.28
2023-02-24T05:51:54.673Z,96849.56
2023-02-24T05:54:30.423Z,96849.41
2023-02-24T05:57:09.484Z,96854.81
2023-02-24T05:59:36.222Z,96854.09
2023-02-24T06:02:07.279Z,96850.50
2023-02-24T06:04:40.602Z,96848.66
2023-02-24T06:07:19.101Z,96849.53
2023-02-24T06:09:50.047Z,96848.09
2023-02-24T06:12:18.544Z,96847.72
2023-02-24T06:14:45.277Z,96846.81
2023-02-24T06:17:11.971Z,96848.78
2023-02-24T06:19:39.682Z,96855.13
2023-02-24T06:22:10.855Z,96856.00
2023-02-24T06:24:37.855Z,96852.72
2023-02-24T06:27:10.372Z,96852.00
2023-02-24T06:29:37.819Z,96861.09
2023-02-24T06:32:08.671Z,96863.28
2023-02-24T06:34:36.853Z,96852.97
2023-02-24T06:37:04.976Z,96854.41
2023-02-24T06:39:37.958Z,96866.94
2023-02-24T06:42:05.666Z,96861.66
2023-02-24T06:44:33.802Z,96860.38
2023-02-24T06:47:00.938Z,96861.31
2023-02-24T06:49:28.587Z,96854.97
2023-02-24T06:51:56.116Z,96844.28
2023-02-24T06:54:25.717Z,96848.97
2023-02-24T06:56:52.394Z,96853.31
2023-02-24T06:59:21.882Z,96851.50
2023-02-24T07:01:49.325Z,96845.19
2023-02-24T07:04:18.011Z,96845.72
2023-02-24T07:06:52.328Z,96844.09
2023-02-24T07:09:22.473Z,96852.00
2023-02-24T07:11:52.459Z,96842.63
2023-02-24T07:14:24.957Z,96845.72
2023-02-24T07:16:55.194Z,96842.44
2023-02-24T07:19:27.250Z,96840.97
2023-02-24T07:22:03.266Z,96844.16
2023-02-24T07:24:36.114Z,96833.84
2023-02-24T07:27:12.242Z,96837.59
2023-02-24T07:29:39.697Z,96832.53
2023-02-24T07:32:09.174Z,96832.31
2023-02-24T07:34:39.814Z,96843.53
2023-02-24T07:37:08.246Z,96838.59
2023-02-24T07:39:37.012Z,96829.91
2023-02-24T07:42:07.678Z,96833.69
2023-02-24T07:44:34.458Z,96824.03
2023-02-24T07:47:01.123Z,96821.09
2023-02-24T07:49:30.178Z,96819.63
2023-02-24T07:51:58.082Z,96814.66
2023-02-24T07:54:29.918Z,96821.31
2023-02-24T07:56:59.220Z,96812.06
2023-02-24T07:59:32.466Z,96813.09
2023-02-24T08:01:59.518Z,96813.63
2023-02-24T08:04:29.033Z,96813.53
2023-02-24T08:06:56.368Z,96813.00
2023-02-24T08:10:04.935Z,96805.50
2023-02-24T08:12:35.057Z,96802.88
2023-02-24T08:15:08.821Z,96806.84
2023-02-24T08:17:35.636Z,96795.19
2023-02-24T08:20:13.962Z,96792.47
2023-02-24T08:22:44.309Z,96790.56
2023-02-24T08:25:18.329Z,96786.31
2023-02-24T08:28:06.979Z,96784.09
2023-02-24T08:30:38.776Z,96780.41
2023-02-24T08:33:10.517Z,96782.41
2023-02-24T08:35:39.496Z,96785.44
2023-02-24T08:38:09.764Z,96771.16
2023-02-24T08:40:51.502Z,96772.34
2023-02-24T08:43:33.350Z,96766.09
2023-02-24T08:46:18.597Z,96771.44
2023-02-24T08:48:48.290Z,96768.47
2023-02-24T08:51:22.776Z,96760.00
2023-02-24T08:53:54.826Z,96747.91
2023-02-24T08:56:35.059Z,96752.28
2023-02-24T08:59:07.849Z,96759.22
2023-02-24T09:01:40.381Z,96748.31
2023-02-24T09:04:10.922Z,96742.91
2023-02-24T09:07:10.675Z,96737.63
2023-02-24T09:09:42.122Z,96741.81
2023-02-24T09:12:17.242Z,96733.94
2023-02-24T09:14:43.819Z,96733.09
2023-02-24T09:17:15.050Z,96730.63
2023-02-24T09:19:58.509Z,96725.03
2023-02-24T09:22:40.704Z,96732.50
2023-02-24T09:25:40.541Z,96732.78
2023-02-24T09:28:11.053Z,96732.63
2023-02-24T09:30:51.120Z,96730.06
2023-02-24T09:33:27.261Z,96725.69
2023-02-24T09:36:12.796Z,96734.63
2023-02-24T09:39:20.160Z,96726.84
2023-02-24T09:41:54.565Z,96723.56
2023-02-24T09:44:39.160Z,96718.53
2023-02-24T09:47:58.231Z,96722.09
2023-02-24T09:51:03.849Z,96718.63
2023-02-24T09:53:49.200Z,96712.44
2023-02-24T09:56:22.841Z,96721.06
2023-02-24T09:59:26.079Z,96725.06
2023-02-24T10:02:28.277Z,96719.69
2023-02-24T10:05:27.451Z,96713.50
2023-02-24T10:07:57.147Z,96715.13
2023-02-24T10:10:29.842Z,96704.56
2023-02-24T10:13:30.259Z,96705.53
2023-02-24T10:15:59.866Z,96696.75
2023-02-24T10:18:48.542Z,96688.75
2023-02-24T10:21:30.833Z,96690.59
2023-02-24T10:24:29.362Z,96688.13
2023-02-24T10:27:08.852Z,96684.03
2023-02-24T10:30:19.718Z,96678.47
2023-02-24T10:32:53.371Z,96678.72
2023-02-24T10:35:25.941Z,96675.41
2023-02-24T10:37:53.943Z,96676.72
2023-02-24T10:40:41.306Z,96675.88
2023-02-24T10:43:10.597Z,96659.19
2023-02-24T10:45:45.210Z,96660.75
2023-02-24T10:48:40.258Z,96653.31
2023-02-24T10:51:22.122Z,96644.72
2023-02-24T10:54:09.937Z,96641.19
2023-02-24T10:56:44.857Z,96635.97
2023-02-24T10:59:40.835Z,96630.97
2023-02-24T11:02:32.923Z,96621.41
2023-02-24T11:05:25.008Z,96615.31
2023-02-24T11:08:07.336Z,96605.38
2023-02-24T11:10:53.006Z,96596.00
2023-02-24T11:13:39.363Z,96606.84
2023-02-24T11:16:27.889Z,96589.88
2023-02-24T11:18:55.756Z,96593.44
2023-02-24T11:21:26.562Z,96581.00
2023-02-24T11:24:02.766Z,96577.56
2023-02-24T11:26:40.439Z,96580.69
2023-02-24T11:29:58.048Z,96570.31
2023-02-24T11:32:39.509Z,96570.09
2023-02-24T11:35:28.489Z,96560.69
2023-02-24T11:38:28.708Z,96555.69
2023-02-24T11:41:05.378Z,96555.13
2023-02-24T11:43:35.372Z,96543.56
2023-02-24T11:46:14.926Z,96541.31
2023-02-24T11:48:52.257Z,96539.56
2023-02-24T11:51:29.514Z,96532.88
2023-02-24T11:54:02.002Z,96524.53
2023-02-24T11:56:49.975Z,96525.84
2023-02-24T11:59:24.607Z,96516.97
2023-02-24T12:02:35.736Z,96507.16
2023-02-24T12:05:13.312Z,96511.41
2023-02-24T12:07:50.421Z,96508.00
2023-02-24T12:10:24.280Z,96508.81
2023-02-24T12:13:14.445Z,96501.44
2023-02-24T12:15:48.697Z,96499.50
2023-02-24T12:18:24.272Z,96494.88
2023-02-24T12:20:55.613Z,96497.72
2023-02-24T12:23:54.448Z,96495.69
2023-02-24T12:26:42.794Z,96482.97
2023-02-24T12:29:42.510Z,96479.50
2023-02-24T12:32:30.332Z,96476.75
2023-02-24T12:35:24.703Z,96466.41
2023-02-24T12:38:16.210Z,96468.31
2023-02-24T12:40:51.359Z,96466.84
2023-02-24T12:44:07.571Z,96464.34
2023-02-24T12:46:36.704Z,96459.59
2023-02-24T12:49:11.969Z,96455.09
2023-02-24T12:52:20.068Z,96456.25
2023-02-24T12:54:49.523Z,96443.63
2023-02-24T12:57:44.220Z,96438.22
2023-02-24T13:00:43.103Z,96437.75
2023-02-24T13:03:33.489Z,96436.81
2023-02-24T13:06:15.124Z,96424.38
2023-02-24T13:12:14.858Z,96429.06
2023-02-24T13:14:43.248Z,96421.47
2023-02-24T13:17:12.738Z,96413.16
2023-02-24T13:19:44.649Z,96410.41
2023-02-24T13:22:11.511Z,96410.56
2023-02-24T13:24:42.107Z,96403.53
2023-02-24T13:27:22.945Z,96405.38
2023-02-24T13:30:02.675Z,96396.31
2023-02-24T13:32:38.022Z,96395.84
2023-02-24T13:35:06.541Z,96401.41
2023-02-24T13:37:39.292Z,96390.38
2023-02-24T13:40:16.503Z,96381.09
2023-02-24T13:43:04.920Z,96378.09
2023-02-24T13:45:41.872Z,96376.56
2023-02-24T13:48:22.433Z,96370.03
2023-02-24T13:51:21.709Z,96365.13
2023-02-24T13:54:18.776Z,96366.06
2023-02-24T13:57:09.949Z,96374.28
2023-02-24T13:59:59.418Z,96359.88
2023-02-24T14:02:30.225Z,96354.28
2023-02-24T14:05:00.989Z,96352.03
2023-02-24T14:07:32.079Z,96342.31
2023-02-24T14:10:05.571Z,96343.50
2023-02-24T14:12:35.110Z,96338.25
2023-02-24T14:15:03.658Z,96343.72
2023-02-24T14:17:34.178Z,96340.41
2023-02-24T14:20:06.832Z,96337.78
2023-02-24T14:22:34.725Z,96325.66
2023-02-24T14:25:03.005Z,96319.22
2023-02-24T14:27:29.749Z,96312.09
2023-02-24T14:29:56.552Z,96312.56
2023-02-24T14:32:28.280Z,96311.38
2023-02-24T14:34:55.346Z,96301.16
2023-02-24T14:37:28.153Z,96305.69
2023-02-24T14:39:59.656Z,96305.31
2023-02-24T14:42:28.209Z,96301.03
2023-02-24T14:44:57.985Z,96291.88
2023-02-24T14:47:28.726Z,96288.53
2023-02-24T14:50:04.727Z,96284.50
2023-02-24T14:52:39.781Z,96279.75
2023-02-24T14:55:28.256Z,96263.34
2023-02-24T14:58:14.304Z,96257.75
2023-02-24T15:00:49.738Z,96250.28
2023-02-24T15:03:46.348Z,96251.31
2023-02-24T15:06:40.678Z,96246.56
2023-02-24T15:09:15.623Z,96242.78
2023-02-24T15:11:42.513Z,96244.09
2023-02-24T15:14:30.631Z,96235.28
2023-02-24T15:17:01.221Z,96236.94
2023-02-24T15:19:46.871Z,96238.72
2023-02-24T15:22:21.584Z,96233.25
2023-02-24T15:24:48.803Z,96226.38
2023-02-24T15:27:27.430Z,96233.63
2023-02-24T15:30:08.785Z,96233.72
2023-02-24T15:32:37.910Z,96227.88
2023-02-24T15:35:05.550Z,96229.81
2023-02-24T15:37:42.139Z,96226.47
2023-02-24T15:40:20.829Z,96220.66
2023-02-24T15:43:08.860Z,96223.75
2023-02-24T15:45:38.144Z,96217.22
2023-02-24T15:48:20.461Z,96216.00
2023-02-24T15:50:47.888Z,96210.91
2023-02-24T15:53:15.240Z,96202.13
2023-02-24T15:55:43.704Z,96201.78
2023-02-24T15:58:18.626Z,96205.09
2023-02-24T16:00:46.049Z,96211.16
2023-02-24T16:03:12.844Z,96203.72
2023-02-24T16:05:39.687Z,96201.72
2023-02-24T16:08:12.995Z,96211.44
2023-02-24T16:10:40.116Z,96202.88
2023-02-24T16:13:08.988Z,96208.91
2023-02-24T16:15:39.221Z,96213.41
2023-02-24T16:18:14.110Z,96209.34
2023-02-24T16:20:40.850Z,96212.78
2023-02-24T16:23:07.462Z,96208.03
2023-02-24T16:25:43.646Z,96201.88
2023-02-24T16:28:15.001Z,96194.50
2023-02-24T16:30:42.338Z,96184.06
2023-02-24T16:33:14.798Z,96176.03
2023-02-24T16:35:43.008Z,96184.53
2023-02-24T16:38:15.172Z,96181.56
2023-02-24T16:40:47.240Z,96178.13
2023-02-24T16:43:14.006Z,96176.56
2023-02-24T16:45:41.786Z,96182.50
2023-02-24T16:48:25.074Z,96173.69
2023-02-24T16:50:52.203Z,96168.06
2023-02-24T16:53:22.670Z,96173.66
2023-02-24T16:55:49.508Z,96178.53
2023-02-24T16:58:16.195Z,96183.38
2023-02-24T17:00:45.815Z,96180.31
2023-02-24T17:03:24.704Z,96160.91
2023-02-24T17:05:51.527Z,96157.94
2023-02-24T17:08:19.277Z,96162.13
2023-02-24T17:10:46.551Z,96160.66
2023-02-24T17:13:15.994Z,96161.97
2023-02-24T17:15:42.659Z,96166.13
2023-02-24T17:18:09.322Z,96161.97
2023-02-24T17:20:36.663Z,96166.97
2023-02-24T17:23:03.290Z,96171.59
2023-02-24T17:25:31.727Z,96163.53
2023-02-24T17:27:59.293Z,96178.03
2023-02-24T17:30:30.046Z,96157.94
2023-02-24T17:32:57.407Z,96163.03
2023-02-24T17:35:24.609Z,96151.59
2023-02-24T17:37:51.563Z,96154.06
2023-02-24T17:40:18.502Z,96157.41
2023-02-24T17:42:45.129Z,96156.44
2023-02-24T17:45:13.877Z,96159.34
2023-02-24T17:47:41.572Z,96158.63
2023-02-24T17:50:10.374Z,96159.22
2023-02-24T17:52:37.341Z,96159.28
2023-02-24T17:55:04.998Z,96159.47
2023-02-24T17:57:34.071Z,96159.75
2023-02-24T18:00:00.691Z,96158.44
2023-02-24T18:02:27.481Z,96157.59
2023-02-24T18:04:54.494Z,96155.59
2023-02-24T18:07:21.285Z,96152.00
2023-02-24T18:09:48.065Z,96161.81
2023-02-24T18:12:14.835Z,96155.09
2023-02-24T18:14:41.456Z,96163.31
2023-02-24T18:17:08.086Z,96159.94
2023-02-24T18:19:34.685Z,96159.03
2023-02-24T18:22:01.372Z,96138.97
2023-02-24T18:24:28.350Z,96137.41
2023-02-24T18:26:55.108Z,96130.91
2023-02-24T18:29:21.766Z,96137.63
2023-02-24T18:31:48.518Z,96125.16
2023-02-24T18:34:15.310Z,96120.47
2023-02-24T18:36:41.917Z,96118.47
2023-02-24T18:39:09.927Z,96124.19
2023-02-24T18:41:36.589Z,96128.28
2023-02-24T18:44:03.244Z,96123.06
2023-02-24T18:46:29.963Z,96122.63
2023-02-24T18:48:57.294Z,96126.25
2023-02-24T18:51:29.074Z,96132.16
2023-02-24T18:53:58.652Z,96125.28
2023-02-24T18:56:27.122Z,96110.88
2023-02-24T18:58:58.220Z,96122.94
2023-02-24T19:01:26.664Z,96121.50
2023-02-24T19:03:55.269Z,96114.25
2023-02-24T19:06:23.898Z,96107.50
2023-02-24T19:08:57.625Z,96108.41
2023-02-24T19:11:24.391Z,96113.59
2023-02-24T19:13:51.864Z,96109.91
2023-02-24T19:16:19.295Z,96103.34
2023-02-24T19:18:49.295Z,96104.25
2023-02-24T19:21:15.833Z,96093.34
2023-02-24T19:23:42.455Z,96101.09
2023-02-24T19:26:24.865Z,96100.94
2023-02-24T19:28:52.581Z,96092.19
2023-02-24T19:31:22.401Z,96094.94
2023-02-24T19:33:57.124Z,96090.38
2023-02-24T19:36:24.895Z,96090.38
2023-02-24T19:38:54.331Z,96103.00
2023-02-24T19:41:21.184Z,96093.09
2023-02-24T19:43:47.841Z,96112.16
2023-02-24T19:46:15.821Z,96107.16
2023-02-24T19:48:42.530Z,96099.75
2023-02-24T19:51:20.131Z,96081.34
2023-02-24T19:53:47.526Z,96100.56
2023-02-24T19:56:14.698Z,96099.47
2023-02-24T19:58:41.282Z,96094.03
2023-02-24T20:01:13.576Z,96090.19
2023-02-24T20:03:41.969Z,96062.16
2023-02-24T20:06:20.420Z,96052.44
2023-02-24T20:08:48.072Z,96056.84
2023-02-24T20:11:15.055Z,96043.81
2023-02-24T20:13:41.697Z,96026.91
2023-02-24T20:16:14.358Z,96042.78
2023-02-24T20:18:41.562Z,96019.16
2023-02-24T20:21:11.009Z,96004.84
2023-02-24T20:23:38.693Z,95993.81
2023-02-24T20:26:05.850Z,96001.00
2023-02-24T20:28:32.609Z,96006.00
2023-02-24T20:31:06.429Z,95992.22
2023-02-24T20:33:33.072Z,95993.25
2023-02-24T20:35:59.817Z,95998.00
2023-02-24T20:38:26.472Z,95987.41
2023-02-24T20:41:00.600Z,95980.81
2023-02-24T20:43:27.721Z,95969.91
2023-02-24T20:45:54.676Z,95975.50
2023-02-24T20:48:21.384Z,95973.22
2023-02-24T20:50:48.004Z,95960.59
2023-02-24T20:53:14.698Z,95946.13
2023-02-24T20:55:41.451Z,95937.28
2023-02-24T20:58:08.107Z,95930.41
2023-02-24T21:00:34.754Z,95925.69
2023-02-24T21:03:01.806Z,95916.47
2023-02-24T21:05:28.411Z,95924.31
2023-02-24T21:07:55.008Z,95917.13
2023-02-24T21:10:25.918Z,95905.41
2023-02-24T21:12:52.841Z,95921.00
2023-02-24T21:15:20.005Z,95913.00
2023-02-24T21:17:46.658Z,95910.94
2023-02-24T21:20:13.870Z,95907.34
2023-02-24T21:22:41.067Z,95910.38
2023-02-24T21:25:10.762Z,95918.69
2023-02-24T21:27:38.340Z,95911.50
2023-02-24T21:30:09.322Z,95914.72
2023-02-24T21:32:36.116Z,95919.59
2023-02-24T21:35:02.984Z,95928.94
2023-02-24T21:37:30.116Z,95934.13
2023-02-24T21:39:56.850Z,95948.41
2023-02-24T21:42:23.673Z,95964.41
2023-02-24T21:44:53.034Z,95985.66
2023-02-24T21:47:20.442Z,95982.69
2023-02-24T21:49:47.042Z,95979.88
2023-02-24T21:52:13.728Z,95980.81
2023-02-24T21:54:42.295Z,95981.44
2023-02-24T21:57:08.905Z,95981.34
2023-02-24T21:59:35.510Z,95980.66
2023-02-24T22:02:02.202Z,95978.66
2023-02-24T22:04:28.868Z,95971.06
2023-02-24T22:06:55.499Z,95962.63
2023-02-24T22:09:22.165Z,95972.34
2023-02-24T22:11:49.615Z,95967.63
2023-02-24T22:14:16.995Z,95968.91
2023-02-24T22:16:44.417Z,95972.59
2023-02-24T22:19:11.679Z,95958.19
2023-02-24T22:21:41.653Z,95957.56
2023-02-24T22:24:12.273Z,95960.13
2023-02-24T22:26:40.034Z,95962.03
2023-02-24T22:29:06.822Z,95970.41
2023-02-24T22:31:34.952Z,95971.66
2023-02-24T22:34:02.284Z,95972.81
2023-02-24T22:36:31.658Z,95966.97
2023-02-24T22:38:59.811Z,95965.13
2023-02-24T22:41:31.189Z,95958.84
2023-02-24T22:43:58.588Z,95946.41
2023-02-24T22:46:31.393Z,95945.69
2023-02-24T22:48:59.014Z,95940.44
2023-02-24T22:51:26.809Z,95939.59
2023-02-24T22:53:54.305Z,95943.84
2023-02-24T22:56:24.674Z,95934.56
2023-02-24T22:58:51.959Z,95952.28
2023-02-24T23:01:38.216Z,95955.31
2023-02-24T23:04:07.543Z,95950.03
2023-02-24T23:06:36.110Z,95948.06
2023-02-24T23:09:03.851Z,95951.47
2023-02-24T23:11:32.914Z,95946.59
2023-02-24T23:14:03.625Z,95953.63
2023-02-24T23:16:32.963Z,95964.50
2023-02-24T23:19:04.247Z,95963.47
2023-02-24T23:21:42.321Z,95964.06
2023-02-24T23:24:10.926Z,95953.06
2023-02-24T23:26:46.139Z,95932.91
2023-02-24T23:29:15.605Z,95930.75
2023-02-24T23:31:42.554Z,95948.06
2023-02-24T23:34:10.261Z,95944.63
2023-02-24T23:36:39.331Z,95945.91
2023-02-24T23:39:07.851Z,95936.06
2023-02-24T23:41:35.779Z,95941.19
2023-02-24T23:44:03.516Z,95937.91
2023-02-24T23:46:31.547Z,95939.03
2023-02-24T23:48:58.696Z,95923.31
2023-02-24T23:51:25.893Z,95916.03
2023-02-24T23:53:53.758Z,95921.34
2023-02-24T23:56:24.326Z,95924.31
2023-02-24T23:58:53.054Z,95918.00
